25NK weather

Loucks Airport
Hammondsport, New York, United States

Public forecast

Using degrees Fahrenheit for public forecast. Weather courtesy of forecast.io.

Closest aviation weather report (METAR) to Loucks Airport

Closest report is Penn Yan Airport, 12.6 nm (23.3 km) NNE. Retrieved 2019/11/18 06:53 UTC (50 minutes ago):

KPEO 180653Z AUTO 14005KT 10SM OVC025 01/M02 A2994 RMK AO2 SLP148 T00061022

Closest aviation forecast (TAF) to Loucks Airport

Closest forecast is Elmira Corning Regional Airport, 19.7 nm (36.5 km) SSE. Retrieved 2019/11/18 06:24 UTC (1 hour ago):

TAF KELM 180521Z 1806/1906 VRB03KT P6SM BKN027 FM181000 00000KT P6SM OVC012 FM182300 00000KT P6SM OVC020